createdAt,value
2018-03-17T00:02:03.988Z,-0.70
2018-03-17T00:04:32.362Z,-0.92
2018-03-17T00:07:00.739Z,-1.12
2018-03-17T00:09:29.162Z,-1.15
2018-03-17T00:11:57.517Z,-1.01
2018-03-17T00:14:25.866Z,-0.90
2018-03-17T00:16:55.030Z,-0.98
2018-03-17T00:19:23.363Z,-0.82
2018-03-17T00:21:52.481Z,-1.05
2018-03-17T00:24:20.942Z,-1.24
2018-03-17T00:26:50.139Z,-1.26
2018-03-17T00:29:19.254Z,-1.12
2018-03-17T00:31:47.633Z,-1.26
2018-03-17T00:34:15.954Z,-1.09
2018-03-17T00:36:45.111Z,-1.22
2018-03-17T00:39:13.489Z,-1.21
2018-03-17T00:41:41.842Z,-0.99
2018-03-17T00:44:10.930Z,-1.05
2018-03-17T00:46:40.212Z,-1.19
2018-03-17T00:49:08.621Z,-1.10
2018-03-17T00:51:37.044Z,-1.10
2018-03-17T00:54:05.774Z,-1.15
2018-03-17T00:56:34.261Z,-1.16
2018-03-17T00:59:02.765Z,-1.28
2018-03-17T01:01:31.243Z,-1.25
2018-03-17T01:03:59.696Z,-1.37
2018-03-17T01:06:28.091Z,-1.36
2018-03-17T01:08:57.786Z,-1.47
2018-03-17T01:11:26.169Z,-1.39
2018-03-17T01:13:54.650Z,-1.25
2018-03-17T01:16:23.142Z,-1.32
2018-03-17T01:18:52.327Z,-1.43
2018-03-17T01:21:20.806Z,-1.46
2018-03-17T01:23:49.221Z,-1.27
2018-03-17T01:26:17.665Z,-1.36
2018-03-17T01:28:46.096Z,-1.21
2018-03-17T01:31:14.615Z,-1.34
2018-03-17T01:33:42.974Z,-1.26
2018-03-17T01:36:11.372Z,-1.50
2018-03-17T01:38:39.717Z,-1.63
2018-03-17T01:41:08.100Z,-1.42
2018-03-17T01:43:36.446Z,-1.60
2018-03-17T01:46:04.791Z,-1.36
2018-03-17T01:48:33.118Z,-1.55
2018-03-17T01:51:01.476Z,-1.63
2018-03-17T01:53:29.977Z,-1.55
2018-03-17T01:55:58.305Z,-1.43
2018-03-17T01:58:26.644Z,-1.36
2018-03-17T02:00:55.029Z,-1.54
2018-03-17T02:03:23.407Z,-1.56
2018-03-17T02:05:51.744Z,-1.50
2018-03-17T02:08:20.092Z,-1.56
2018-03-17T02:10:48.436Z,-1.57
2018-03-17T02:13:16.836Z,-1.44
2018-03-17T02:15:45.392Z,-1.56
2018-03-17T02:18:13.720Z,-1.81
2018-03-17T02:20:42.057Z,-1.76
2018-03-17T02:23:10.425Z,-1.77
2018-03-17T02:25:39.554Z,-1.67
2018-03-17T02:28:07.905Z,-1.51
2018-03-17T02:30:37.050Z,-1.60
2018-03-17T02:33:05.429Z,-1.60
2018-03-17T02:35:33.752Z,-1.73
2018-03-17T02:38:03.027Z,-1.73
2018-03-17T02:40:31.329Z,-1.57
2018-03-17T02:43:00.425Z,-1.47
2018-03-17T02:45:29.550Z,-1.52
2018-03-17T02:47:57.902Z,-1.67
2018-03-17T02:50:26.254Z,-1.76
2018-03-17T02:52:54.634Z,-1.92
2018-03-17T02:55:22.962Z,-1.82
2018-03-17T02:57:51.288Z,-1.78
2018-03-17T03:00:19.725Z,-1.86
2018-03-17T03:02:48.061Z,-2.00
2018-03-17T03:05:16.391Z,-2.05
2018-03-17T03:07:44.756Z,-2.08
2018-03-17T03:10:13.122Z,-1.93
2018-03-17T03:12:41.460Z,-1.82
2018-03-17T03:15:09.841Z,-1.77
2018-03-17T03:17:38.173Z,-1.99
2018-03-17T03:20:06.481Z,-2.06
2018-03-17T03:22:35.099Z,-2.04
2018-03-17T03:25:03.482Z,-1.86
2018-03-17T03:27:31.827Z,-2.05
2018-03-17T03:30:00.202Z,-1.98
2018-03-17T03:32:28.517Z,-1.97
2018-03-17T03:34:56.831Z,-2.20
2018-03-17T03:37:25.183Z,-2.02
2018-03-17T03:39:53.494Z,-2.05
2018-03-17T03:42:21.834Z,-2.01
2018-03-17T03:44:51.174Z,-1.94
2018-03-17T03:47:19.528Z,-2.12
2018-03-17T03:49:47.913Z,-2.21
2018-03-17T03:52:16.276Z,-2.25
2018-03-17T03:54:45.376Z,-2.28
2018-03-17T03:57:13.701Z,-2.07
2018-03-17T03:59:42.052Z,-2.27
2018-03-17T04:02:10.407Z,-2.31
2018-03-17T04:04:39.530Z,-2.27
2018-03-17T04:07:08.165Z,-2.37
2018-03-17T04:09:36.504Z,-2.03
2018-03-17T04:12:04.861Z,-2.14
2018-03-17T04:14:33.225Z,-2.10
2018-03-17T04:17:01.632Z,-2.17
2018-03-17T04:19:30.721Z,-2.04
2018-03-17T04:21:59.069Z,-1.92
2018-03-17T04:24:27.431Z,-1.99
2018-03-17T04:26:55.768Z,-2.31
2018-03-17T04:29:24.315Z,-2.37
2018-03-17T04:31:53.441Z,-2.19
2018-03-17T04:34:21.755Z,-2.05
2018-03-17T04:36:50.077Z,-2.02
2018-03-17T04:39:19.200Z,-2.17
2018-03-17T04:41:47.525Z,-2.27
2018-03-17T04:44:15.903Z,-2.14
2018-03-17T04:46:44.230Z,-2.37
2018-03-17T04:49:12.552Z,-2.27
2018-03-17T04:51:40.985Z,-2.01
2018-03-17T04:54:09.411Z,-2.12
2018-03-17T04:56:37.810Z,-2.27
2018-03-17T04:59:06.693Z,-2.41
2018-03-17T05:01:35.018Z,-2.43
2018-03-17T05:04:03.358Z,-2.35
2018-03-17T05:06:31.720Z,-2.45
2018-03-17T05:09:00.078Z,-2.42
2018-03-17T05:11:28.393Z,-2.25
2018-03-17T05:13:56.938Z,-2.12
2018-03-17T05:16:25.306Z,-2.10
2018-03-17T05:18:53.661Z,-1.99
2018-03-17T05:21:22.020Z,-2.25
2018-03-17T05:23:50.337Z,-2.19
2018-03-17T05:26:18.645Z,-2.01
2018-03-17T05:28:46.999Z,-1.95
2018-03-17T05:31:15.316Z,-1.95
2018-03-17T05:33:43.658Z,-1.95
2018-03-17T05:36:12.307Z,-2.33
2018-03-17T05:38:41.429Z,-2.15
2018-03-17T05:41:09.899Z,-1.81
2018-03-17T05:43:38.290Z,-2.12
2018-03-17T05:46:06.634Z,-2.25
2018-03-17T05:48:34.940Z,-2.03
2018-03-17T05:51:03.307Z,-2.03
2018-03-17T05:53:31.726Z,-1.96
2018-03-17T05:56:00.241Z,-1.80
2018-03-17T05:58:29.403Z,-1.93
2018-03-17T06:00:57.738Z,-1.98
2018-03-17T06:03:26.093Z,-1.85
2018-03-17T06:05:54.455Z,-2.01
2018-03-17T06:08:22.767Z,-1.99
2018-03-17T06:10:52.077Z,-1.86
2018-03-17T06:13:20.425Z,-2.06
2018-03-17T06:15:48.776Z,-1.73
2018-03-17T06:18:17.143Z,-1.82
2018-03-17T06:20:45.610Z,-1.94
2018-03-17T06:23:13.905Z,-1.75
2018-03-17T06:25:43.027Z,-1.73
2018-03-17T06:28:11.374Z,-1.76
2018-03-17T06:30:39.697Z,-1.91
2018-03-17T06:33:08.070Z,-1.75
2018-03-17T06:35:36.411Z,-1.74
2018-03-17T06:38:04.733Z,-1.66
2018-03-17T06:40:33.042Z,-1.66
2018-03-17T06:43:02.132Z,-1.53
2018-03-17T06:45:30.454Z,-1.26
2018-03-17T06:47:58.793Z,-1.28
2018-03-17T06:50:27.898Z,-1.22
2018-03-17T06:52:56.997Z,-1.04
2018-03-17T06:55:26.100Z,-1.16
2018-03-17T06:57:55.388Z,-1.23
2018-03-17T07:00:24.490Z,-0.88
2018-03-17T07:02:53.568Z,-0.65
2018-03-17T07:05:22.045Z,-0.35
2018-03-17T07:07:50.371Z,0.36
2018-03-17T07:10:18.964Z,-0.05
2018-03-17T07:12:47.332Z,0.69
2018-03-17T07:15:15.667Z,2.33
2018-03-17T07:17:43.981Z,3.25
2018-03-17T07:20:12.344Z,4.04
2018-03-17T07:22:41.431Z,4.05
2018-03-17T07:25:10.588Z,3.21
2018-03-17T07:27:39.049Z,3.10
2018-03-17T07:30:07.339Z,3.63
2018-03-17T07:32:35.679Z,4.58
2018-03-17T07:35:04.102Z,5.66
2018-03-17T07:37:32.476Z,4.46
2018-03-17T07:40:00.769Z,4.85
2018-03-17T07:42:29.097Z,3.93
2018-03-17T07:44:57.499Z,4.81
2018-03-17T07:47:25.809Z,4.52
2018-03-17T07:49:54.208Z,5.17
2018-03-17T07:52:22.561Z,5.75
2018-03-17T07:54:50.894Z,6.97
2018-03-17T07:57:19.278Z,6.95
2018-03-17T07:59:47.603Z,5.68
2018-03-17T08:02:15.896Z,5.98
2018-03-17T08:04:44.242Z,6.00
2018-03-17T08:07:12.573Z,6.35
2018-03-17T08:09:40.865Z,5.68
2018-03-17T08:12:09.388Z,5.39
2018-03-17T08:14:37.737Z,5.78
2018-03-17T08:17:06.091Z,6.55
2018-03-17T08:19:34.473Z,7.49
2018-03-17T08:22:02.794Z,7.06
2018-03-17T08:24:31.142Z,7.22
2018-03-17T08:26:59.529Z,5.29
2018-03-17T08:29:27.862Z,3.85
2018-03-17T08:31:56.228Z,3.93
2018-03-17T08:34:25.061Z,3.71
2018-03-17T08:36:53.410Z,2.60
2018-03-17T08:39:21.801Z,3.08
2018-03-17T08:41:50.152Z,3.46
2018-03-17T08:44:18.485Z,2.64
2018-03-17T08:46:46.884Z,2.67
2018-03-17T08:49:15.251Z,2.87
2018-03-17T08:51:43.664Z,4.42
2018-03-17T08:54:12.017Z,4.48
2018-03-17T08:56:40.533Z,5.13
2018-03-17T08:59:08.830Z,5.77
2018-03-17T09:01:37.142Z,3.64
2018-03-17T09:04:05.489Z,3.10
2018-03-17T09:06:34.577Z,4.10
2018-03-17T09:09:02.891Z,5.14
2018-03-17T09:11:31.241Z,5.48
2018-03-17T09:13:59.579Z,5.62
2018-03-17T09:16:27.901Z,5.97
2018-03-17T09:18:56.310Z,6.51
2018-03-17T09:21:24.643Z,6.87
2018-03-17T09:23:52.960Z,7.00
2018-03-17T09:26:21.314Z,8.06
2018-03-17T09:28:49.657Z,8.15
2018-03-17T09:31:17.971Z,8.86
2018-03-17T09:33:47.073Z,8.76
2018-03-17T09:36:15.463Z,7.86
2018-03-17T09:38:43.829Z,8.45
2018-03-17T09:41:13.244Z,8.06
2018-03-17T09:43:41.588Z,8.45
2018-03-17T09:46:09.915Z,8.33
2018-03-17T09:48:38.397Z,6.67
2018-03-17T09:51:06.774Z,5.61
2018-03-17T09:53:35.107Z,5.27
2018-03-17T09:56:03.485Z,5.01
2018-03-17T09:58:31.820Z,4.66
2018-03-17T10:01:00.136Z,3.76
2018-03-17T10:03:28.543Z,3.78
2018-03-17T10:05:56.856Z,3.66
2018-03-17T10:08:25.171Z,4.74
2018-03-17T10:10:53.584Z,4.73
2018-03-17T10:13:21.994Z,5.47
2018-03-17T10:15:50.318Z,5.23
2018-03-17T10:18:18.686Z,6.40
2018-03-17T10:20:47.023Z,6.48
2018-03-17T10:23:15.396Z,7.56
2018-03-17T10:25:43.823Z,6.88
2018-03-17T10:28:12.158Z,9.43
2018-03-17T10:30:40.494Z,10.87
2018-03-17T10:33:08.853Z,11.10
2018-03-17T10:35:37.190Z,11.11
2018-03-17T10:38:05.505Z,11.54
2018-03-17T10:40:33.856Z,10.58
2018-03-17T10:43:02.184Z,12.69
2018-03-17T10:45:30.621Z,13.62
2018-03-17T10:47:59.125Z,13.54
2018-03-17T10:50:27.508Z,13.71
2018-03-17T10:52:55.860Z,14.14
2018-03-17T10:55:24.265Z,11.11
2018-03-17T10:57:52.613Z,9.52
2018-03-17T11:00:26.494Z,8.77
2018-03-17T11:02:54.809Z,8.30
2018-03-17T11:05:23.124Z,7.71
2018-03-17T11:07:51.616Z,7.93
2018-03-17T11:10:19.944Z,7.63
2018-03-17T11:12:48.294Z,8.93
2018-03-17T11:15:16.801Z,9.49
2018-03-17T11:17:45.107Z,9.52
2018-03-17T11:20:13.438Z,8.23
2018-03-17T11:22:41.998Z,8.03
2018-03-17T11:25:10.313Z,7.14
2018-03-17T11:27:38.613Z,6.74
2018-03-17T11:30:07.490Z,5.92
2018-03-17T11:32:35.823Z,6.27
2018-03-17T11:35:04.272Z,7.15
2018-03-17T11:37:32.613Z,7.88
2018-03-17T11:40:01.711Z,8.38
2018-03-17T11:42:30.055Z,8.30
2018-03-17T11:44:58.412Z,9.66
2018-03-17T11:47:26.702Z,9.46
2018-03-17T11:49:55.034Z,7.19
2018-03-17T11:52:23.770Z,5.02
2018-03-17T11:54:52.065Z,4.88
2018-03-17T11:57:20.383Z,4.37
2018-03-17T11:59:48.792Z,4.05
2018-03-17T12:02:17.110Z,3.90
2018-03-17T12:04:45.453Z,4.11
2018-03-17T12:07:13.897Z,4.52
2018-03-17T12:09:42.212Z,4.98
2018-03-17T12:12:10.518Z,5.65
2018-03-17T12:14:39.364Z,6.48
2018-03-17T12:17:07.718Z,7.30
2018-03-17T12:19:36.090Z,7.08
2018-03-17T12:22:04.476Z,7.04
2018-03-17T12:24:32.798Z,7.84
2018-03-17T12:27:01.153Z,7.32
2018-03-17T12:29:29.536Z,7.15
2018-03-17T12:31:57.896Z,9.63
2018-03-17T12:34:26.220Z,10.44
2018-03-17T12:36:54.838Z,9.73
2018-03-17T12:39:23.176Z,11.78
2018-03-17T12:41:51.503Z,13.31
2018-03-17T12:44:19.895Z,13.16
2018-03-17T12:46:48.262Z,12.52
2018-03-17T12:49:16.594Z,12.39
2018-03-17T12:51:44.973Z,11.08
2018-03-17T12:54:13.319Z,9.51
2018-03-17T12:56:41.652Z,9.53
2018-03-17T12:59:10.244Z,9.94
2018-03-17T13:01:38.660Z,10.06
2018-03-17T13:04:07.022Z,9.21
2018-03-17T13:06:35.358Z,8.62
2018-03-17T13:09:03.688Z,6.59
2018-03-17T13:11:32.053Z,7.40
2018-03-17T13:14:00.394Z,7.65
2018-03-17T13:16:28.719Z,5.98
2018-03-17T13:18:57.046Z,6.51
2018-03-17T13:21:25.582Z,7.38
2018-03-17T13:23:53.902Z,7.63
2018-03-17T13:26:22.233Z,9.50
2018-03-17T13:28:50.646Z,9.93
2018-03-17T13:31:18.957Z,10.88
2018-03-17T13:33:47.291Z,11.57
2018-03-17T13:36:33.397Z,11.64
2018-03-17T13:39:01.757Z,11.49
2018-03-17T13:41:30.077Z,9.23
2018-03-17T13:43:58.438Z,7.96
2018-03-17T13:46:26.819Z,6.87
2018-03-17T13:48:55.142Z,5.81
2018-03-17T13:51:23.496Z,5.13
2018-03-17T13:53:51.819Z,4.84
2018-03-17T13:56:20.153Z,4.71
2018-03-17T13:58:48.651Z,5.04
2018-03-17T14:01:17.201Z,5.23
2018-03-17T14:03:45.538Z,5.34
2018-03-17T14:06:14.275Z,4.28
2018-03-17T14:08:42.678Z,4.40
2018-03-17T14:11:10.979Z,4.82
2018-03-17T14:13:40.120Z,4.91
2018-03-17T14:16:08.464Z,5.24
2018-03-17T14:18:37.588Z,6.37
2018-03-17T14:21:06.011Z,7.82
2018-03-17T14:23:34.367Z,7.92
2018-03-17T14:26:02.718Z,8.62
2018-03-17T14:28:31.094Z,8.55
2018-03-17T14:30:59.434Z,7.20
2018-03-17T14:33:28.554Z,8.89
2018-03-17T14:35:56.942Z,8.51
2018-03-17T14:38:25.293Z,8.33
2018-03-17T14:40:54.407Z,7.19
2018-03-17T14:43:23.205Z,6.34
2018-03-17T14:45:51.560Z,6.45
2018-03-17T14:48:19.945Z,6.31
2018-03-17T14:50:48.331Z,6.37
2018-03-17T14:53:16.655Z,5.80
2018-03-17T14:55:45.099Z,5.10
2018-03-17T14:58:13.470Z,5.00
2018-03-17T15:00:41.884Z,5.91
2018-03-17T15:03:10.663Z,6.33
2018-03-17T15:05:39.163Z,6.76
2018-03-17T15:08:07.510Z,6.63
2018-03-17T15:10:35.845Z,6.03
2018-03-17T15:13:04.201Z,5.42
2018-03-17T15:15:32.507Z,5.58
2018-03-17T15:18:01.602Z,7.06
2018-03-17T15:20:30.741Z,7.58
2018-03-17T15:22:59.077Z,8.22
2018-03-17T15:25:28.175Z,6.83
2018-03-17T15:27:56.724Z,5.83
2018-03-17T15:30:25.097Z,5.76
2018-03-17T15:32:53.446Z,7.12
2018-03-17T15:35:21.801Z,6.65
2018-03-17T15:37:50.931Z,7.50
2018-03-17T15:40:19.287Z,7.69
2018-03-17T15:42:47.681Z,7.45
2018-03-17T15:45:16.028Z,5.62
2018-03-17T15:47:45.175Z,4.93
2018-03-17T15:50:13.826Z,4.63
2018-03-17T15:52:42.925Z,4.72
2018-03-17T15:55:11.258Z,4.78
2018-03-17T15:57:39.627Z,4.15
2018-03-17T16:00:08.116Z,4.35
2018-03-17T16:02:36.436Z,3.71
2018-03-17T16:05:04.787Z,3.64
2018-03-17T16:07:33.159Z,3.63
2018-03-17T16:10:01.463Z,3.37
2018-03-17T16:12:29.941Z,3.42
2018-03-17T16:14:58.289Z,3.10
2018-03-17T16:17:26.643Z,3.09
2018-03-17T16:19:54.999Z,2.94
2018-03-17T16:22:23.332Z,2.96
2018-03-17T16:24:51.684Z,3.15
2018-03-17T16:27:20.043Z,3.20
2018-03-17T16:29:48.395Z,3.01
2018-03-17T16:32:17.536Z,2.78
2018-03-17T16:34:45.970Z,2.62
2018-03-17T16:37:14.324Z,2.75
2018-03-17T16:39:42.647Z,2.18
2018-03-17T16:42:11.791Z,2.02
2018-03-17T16:44:40.092Z,2.04
2018-03-17T16:47:08.448Z,1.99
2018-03-17T16:49:36.770Z,2.00
2018-03-17T16:52:05.132Z,2.03
2018-03-17T16:54:33.483Z,1.92
2018-03-17T16:57:02.129Z,1.86
2018-03-17T16:59:30.477Z,1.95
2018-03-17T17:01:58.819Z,2.09
2018-03-17T17:04:27.167Z,1.74
2018-03-17T17:06:55.505Z,1.57
2018-03-17T17:09:23.849Z,1.54
2018-03-17T17:11:52.967Z,1.64
2018-03-17T17:14:21.343Z,1.62
2018-03-17T17:16:49.687Z,1.33
2018-03-17T17:19:18.346Z,1.30
2018-03-17T17:21:47.434Z,1.62
2018-03-17T17:24:15.793Z,1.65
2018-03-17T17:26:44.143Z,1.52
2018-03-17T17:29:12.446Z,1.18
2018-03-17T17:31:40.775Z,1.03
2018-03-17T17:34:09.159Z,1.13
2018-03-17T17:36:37.481Z,1.30
2018-03-17T17:39:05.775Z,0.87
2018-03-17T17:41:34.315Z,0.98
2018-03-17T17:44:02.643Z,0.79
2018-03-17T17:46:30.986Z,0.80
2018-03-17T17:48:59.341Z,0.72
2018-03-17T17:51:28.437Z,0.71
2018-03-17T17:53:57.519Z,0.82
2018-03-17T17:56:25.888Z,0.75
2018-03-17T17:58:54.221Z,0.73
2018-03-17T18:01:22.530Z,0.80
2018-03-17T18:03:50.957Z,0.80
2018-03-17T18:06:19.357Z,0.94
2018-03-17T18:08:47.677Z,1.10
2018-03-17T18:11:16.785Z,0.79
2018-03-17T18:13:45.874Z,0.72
2018-03-17T18:16:14.971Z,0.68
2018-03-17T18:18:44.079Z,0.60
2018-03-17T18:21:12.408Z,0.77
2018-03-17T18:23:40.724Z,0.78
2018-03-17T18:26:09.277Z,1.09
2018-03-17T18:28:37.604Z,0.99
2018-03-17T18:31:05.906Z,1.05
2018-03-17T18:33:34.249Z,0.87
2018-03-17T18:36:02.566Z,0.90
2018-03-17T18:38:30.904Z,0.51
2018-03-17T18:41:00.088Z,0.40
2018-03-17T18:43:28.407Z,0.47
2018-03-17T18:45:56.744Z,0.40
2018-03-17T18:48:26.014Z,0.36
2018-03-17T18:50:54.832Z,0.53
2018-03-17T18:53:23.149Z,0.48
2018-03-17T18:55:51.497Z,0.44
2018-03-17T18:58:20.606Z,0.34
2018-03-17T19:00:48.931Z,0.40
2018-03-17T19:03:17.317Z,0.39
2018-03-17T19:05:45.663Z,0.13
2018-03-17T19:08:13.996Z,0.21
2018-03-17T19:10:43.287Z,0.10
2018-03-17T19:13:11.617Z,0.13
2018-03-17T19:15:39.988Z,0.21
2018-03-17T19:18:09.077Z,0.31
2018-03-17T19:20:37.385Z,0.11
2018-03-17T19:23:05.697Z,-0.11
2018-03-17T19:25:34.068Z,-0.01
2018-03-17T19:28:02.371Z,0.14
2018-03-17T19:30:31.516Z,-0.04
2018-03-17T19:33:00.043Z,0.15
2018-03-17T19:35:28.382Z,0.19
2018-03-17T19:37:56.701Z,0.14
2018-03-17T19:40:25.072Z,0.13
2018-03-17T19:42:53.438Z,-0.09
2018-03-17T19:45:21.894Z,-0.09
2018-03-17T19:47:51.105Z,0.07
2018-03-17T19:50:19.472Z,-0.07
2018-03-17T19:52:47.846Z,0.09
2018-03-17T19:55:16.256Z,-0.02
2018-03-17T19:57:44.597Z,-0.05
2018-03-17T20:00:12.903Z,-0.18
2018-03-17T20:02:41.302Z,-0.08
2018-03-17T20:05:09.807Z,-0.20
2018-03-17T20:07:38.906Z,-0.09
2018-03-17T20:10:07.319Z,-0.48
2018-03-17T20:12:35.645Z,-0.25
2018-03-17T20:15:03.968Z,-0.36
2018-03-17T20:17:32.544Z,-0.17
2018-03-17T20:20:00.874Z,-0.13
2018-03-17T20:22:29.203Z,-0.41
2018-03-17T20:24:57.572Z,-0.50
2018-03-17T20:27:25.921Z,-0.38
2018-03-17T20:29:54.259Z,-0.37
2018-03-17T20:32:22.642Z,-0.32
2018-03-17T20:34:50.942Z,-0.43
2018-03-17T20:37:19.337Z,-0.35
2018-03-17T20:39:47.857Z,-0.25
2018-03-17T20:42:16.671Z,-0.26
2018-03-17T20:44:45.015Z,-0.21
2018-03-17T20:47:13.422Z,-0.31
2018-03-17T20:49:41.822Z,-0.26
2018-03-17T20:52:10.931Z,-0.40
2018-03-17T20:54:39.302Z,-0.33
2018-03-17T20:57:07.668Z,-0.34
2018-03-17T20:59:36.035Z,-0.42
2018-03-17T21:02:04.498Z,-0.31
2018-03-17T21:04:33.639Z,-0.37
2018-03-17T21:07:02.254Z,-0.29
2018-03-17T21:09:31.458Z,-0.34
2018-03-17T21:12:00.566Z,-0.29
2018-03-17T21:14:29.670Z,-0.68
2018-03-17T21:16:58.017Z,-0.44
2018-03-17T21:19:26.374Z,-0.44
2018-03-17T21:21:54.702Z,-0.58
2018-03-17T21:24:23.227Z,-0.57
2018-03-17T21:26:51.531Z,-0.40
2018-03-17T21:29:20.660Z,-0.41
2018-03-17T21:31:49.071Z,-0.59
2018-03-17T21:34:17.427Z,-0.50
2018-03-17T21:36:45.755Z,-0.53
2018-03-17T21:39:14.119Z,-0.30
2018-03-17T21:41:42.443Z,-0.46
2018-03-17T21:44:11.508Z,-0.30
2018-03-17T21:46:40.306Z,-0.53
2018-03-17T21:49:08.614Z,-0.54
2018-03-17T21:51:37.710Z,-0.37
2018-03-17T21:54:07.387Z,-0.38
2018-03-17T21:56:35.690Z,-0.49
2018-03-17T21:59:04.789Z,-0.69
2018-03-17T22:01:33.134Z,-0.76
2018-03-17T22:04:01.492Z,-0.78
2018-03-17T22:06:29.818Z,-0.90
2018-03-17T22:08:59.290Z,-0.60
2018-03-17T22:11:27.605Z,-0.79
2018-03-17T22:13:56.006Z,-0.84
2018-03-17T22:16:24.427Z,-0.85
2018-03-17T22:18:52.773Z,-0.77
2018-03-17T22:21:21.129Z,-0.77
2018-03-17T22:23:49.503Z,-0.72
2018-03-17T22:26:18.583Z,-0.68
2018-03-17T22:28:46.911Z,-0.83
2018-03-17T22:31:15.601Z,-0.73
2018-03-17T22:33:43.927Z,-0.62
2018-03-17T22:36:12.268Z,-0.76
2018-03-17T22:38:40.608Z,-0.70
2018-03-17T22:41:08.970Z,-0.62
2018-03-17T22:43:38.106Z,-0.85
2018-03-17T22:46:06.475Z,-0.86
2018-03-17T22:48:34.840Z,-0.95
2018-03-17T22:51:03.156Z,-0.63
2018-03-17T22:53:31.785Z,-0.58
2018-03-17T22:56:00.122Z,-0.41
2018-03-17T22:58:29.200Z,-0.56
2018-03-17T23:00:57.550Z,-0.82
2018-03-17T23:03:26.677Z,-0.78
2018-03-17T23:05:55.014Z,-0.84
2018-03-17T23:08:24.415Z,-0.87
2018-03-17T23:10:53.495Z,-0.93
2018-03-17T23:13:21.825Z,-0.92
2018-03-17T23:15:50.257Z,-1.03
2018-03-17T23:18:18.598Z,-0.86
2018-03-17T23:20:46.919Z,-1.02
2018-03-17T23:23:15.317Z,-1.01
2018-03-17T23:25:44.419Z,-1.25
2018-03-17T23:28:13.485Z,-1.26
2018-03-17T23:30:41.813Z,-1.28
2018-03-17T23:33:10.144Z,-1.27
2018-03-17T23:35:38.540Z,-1.11
2018-03-17T23:38:06.898Z,-0.94
2018-03-17T23:40:35.222Z,-0.88
2018-03-17T23:43:03.552Z,-0.94
2018-03-17T23:45:32.167Z,-0.90
2018-03-17T23:48:00.698Z,-0.86
2018-03-17T23:50:29.064Z,-1.23
2018-03-17T23:52:58.357Z,-1.20
2018-03-17T23:55:26.893Z,-0.99
2018-03-17T23:57:55.241Z,-1.05
